Bocholt, Belgium
Current Conditions -  °F | °C
As of 4:25 AM on Monday 24 Nov 2014 (Local Time) from EBBL Reporting Station
Broken Clouds Broken Clouds  
Wind Chill: 46°   Ceiling: 1800
Heat Index: 48°   Visibility: NA
Dew Point: 46°   Wind: 6mph
Humidity: 93%   Direction: 280°W
Pressure: 30.12"   Gusts: NA
Location:  51.17°N, 5.58°E
Report Text: EBBL 240325Z AUTO 28005KT //// FEW004/// SCT013/// BKN018/// 09/08 Q1020 GRN
Loading
Personal Weather Stations






























Interactive Weather Map New forecast layout! Learn more

10-Day Weather Forecast

Advertisements
Track Severe Weather on mobile